createdAt,value
2022-09-16T00:00:27.216Z,99396.23
2022-09-16T00:04:14.215Z,99395.89
2022-09-16T00:07:41.027Z,99395.70
2022-09-16T00:11:07.902Z,99402.15
2022-09-16T00:14:34.716Z,99406.87
2022-09-16T00:18:01.440Z,99411.39
2022-09-16T00:21:30.273Z,99416.41
2022-09-16T00:24:57.947Z,99420.77
2022-09-16T00:28:25.225Z,99424.25
2022-09-16T00:31:52.403Z,99427.23
2022-09-16T00:35:19.493Z,99424.08
2022-09-16T00:38:47.084Z,99424.77
2022-09-16T00:42:14.834Z,99421.11
2022-09-16T00:45:42.076Z,99418.16
2022-09-16T00:49:15.869Z,99422.52
2022-09-16T00:52:44.339Z,99421.48
2022-09-16T00:56:14.193Z,99423.38
2022-09-16T00:59:44.980Z,99424.08
2022-09-16T01:03:12.552Z,99424.77
2022-09-16T01:06:41.209Z,99426.85
2022-09-16T01:10:09.686Z,99424.25
2022-09-16T01:13:37.373Z,99425.45
2022-09-16T01:17:12.973Z,99421.26
2022-09-16T01:21:00.030Z,99420.38
2022-09-16T01:24:45.754Z,99424.55
2022-09-16T01:28:36.103Z,99421.75
2022-09-16T01:32:11.663Z,99417.21
2022-09-16T01:36:01.112Z,99420.52
2022-09-16T01:39:37.037Z,99419.81
2022-09-16T01:43:16.279Z,99422.92
2022-09-16T01:46:49.431Z,99423.96
2022-09-16T01:50:24.192Z,99423.44
2022-09-16T01:53:57.328Z,99428.14
2022-09-16T01:57:29.173Z,99429.52
2022-09-16T02:01:04.144Z,99429.67
2022-09-16T02:04:34.141Z,99428.61
2022-09-16T02:08:07.810Z,99431.55
2022-09-16T02:11:36.769Z,99435.89
2022-09-16T02:15:07.366Z,99437.27
2022-09-16T02:18:37.917Z,99430.63
2022-09-16T02:22:09.869Z,99428.86
2022-09-16T02:25:41.023Z,99429.02
2022-09-16T02:29:14.891Z,99426.73
2022-09-16T02:32:47.708Z,99424.81
2022-09-16T02:36:17.883Z,99429.67
2022-09-16T02:39:49.660Z,99433.33
2022-09-16T02:43:17.198Z,99435.06
2022-09-16T02:46:55.555Z,99432.96
2022-09-16T02:50:28.782Z,99435.23
2022-09-16T02:54:03.288Z,99435.77
2022-09-16T02:57:30.359Z,99435.73
2022-09-16T03:00:59.119Z,99436.77
2022-09-16T03:04:25.929Z,99440.77
2022-09-16T03:07:52.633Z,99443.38
2022-09-16T03:11:50.134Z,99444.95
2022-09-16T03:15:29.282Z,99448.59
2022-09-16T03:19:05.192Z,99447.02
2022-09-16T03:22:44.151Z,99446.31
2022-09-16T03:26:17.778Z,99445.10
2022-09-16T03:29:51.236Z,99449.61
2022-09-16T03:33:26.158Z,99448.73
2022-09-16T03:37:01.403Z,99452.91
2022-09-16T03:40:30.401Z,99445.75
2022-09-16T03:44:03.569Z,99441.38
2022-09-16T03:47:31.247Z,99433.38
2022-09-16T03:50:58.752Z,99436.16
2022-09-16T03:54:26.104Z,99434.58
2022-09-16T03:57:53.828Z,99438.75
2022-09-16T04:01:21.563Z,99442.41
2022-09-16T04:04:48.790Z,99440.84
2022-09-16T04:08:15.759Z,99445.88
2022-09-16T04:11:43.272Z,99454.40
2022-09-16T04:15:12.037Z,99455.63
2022-09-16T04:18:39.060Z,99453.36
2022-09-16T04:22:05.947Z,99454.41
2022-09-16T04:25:33.922Z,99447.27
2022-09-16T04:29:00.500Z,99445.87
2022-09-16T04:32:27.197Z,99444.85
2022-09-16T04:35:54.195Z,99448.34
2022-09-16T04:39:21.398Z,99448.86
2022-09-16T04:42:52.946Z,99450.27
2022-09-16T04:46:19.678Z,99451.35
2022-09-16T04:49:46.532Z,99452.24
2022-09-16T04:53:13.140Z,99452.28
2022-09-16T04:56:39.778Z,99456.15
2022-09-16T05:00:08.347Z,99455.66
2022-09-16T05:03:35.272Z,99461.79
2022-09-16T05:07:02.059Z,99467.58
2022-09-16T05:10:28.747Z,99465.70
2022-09-16T05:13:55.988Z,99465.09
2022-09-16T05:17:39.777Z,99467.09
2022-09-16T05:21:13.696Z,99465.63
2022-09-16T05:24:40.605Z,99462.36
2022-09-16T05:28:07.279Z,99463.72
2022-09-16T05:31:36.496Z,99459.60
2022-09-16T05:35:03.549Z,99459.85
2022-09-16T05:38:30.451Z,99463.83
2022-09-16T05:41:59.377Z,99465.85
2022-09-16T05:45:31.461Z,99462.23
2022-09-16T05:48:59.512Z,99464.52
2022-09-16T05:52:26.078Z,99461.21
2022-09-16T05:56:01.121Z,99459.91
2022-09-16T05:59:27.884Z,99458.49
2022-09-16T06:02:54.649Z,99457.13
2022-09-16T06:06:26.031Z,99454.84
2022-09-16T06:09:53.151Z,99459.09
2022-09-16T06:13:20.185Z,99462.01
2022-09-16T06:16:47.318Z,99457.33
2022-09-16T06:20:14.923Z,99448.94
2022-09-16T06:23:42.785Z,99443.03
2022-09-16T06:27:09.959Z,99444.59
2022-09-16T06:30:36.827Z,99438.12
2022-09-16T06:34:03.934Z,99433.16
2022-09-16T06:37:30.914Z,99429.28
2022-09-16T06:41:01.634Z,99430.59
2022-09-16T06:44:28.547Z,99425.70
2022-09-16T06:47:55.560Z,99430.50
2022-09-16T06:51:24.059Z,99428.36
2022-09-16T06:54:50.907Z,99430.85
2022-09-16T06:58:17.622Z,99427.90
2022-09-16T07:01:44.884Z,99432.29
2022-09-16T07:05:12.469Z,99430.68
2022-09-16T07:08:40.031Z,99433.73
2022-09-16T07:12:07.944Z,99442.49
2022-09-16T07:15:39.258Z,99439.48
2022-09-16T07:19:17.849Z,99441.91
2022-09-16T07:22:45.126Z,99441.52
2022-09-16T07:26:15.486Z,99442.32
2022-09-16T07:29:42.152Z,99444.05
2022-09-16T07:33:08.840Z,99446.36
2022-09-16T07:36:37.433Z,99448.66
2022-09-16T07:40:04.785Z,99443.16
2022-09-16T07:43:31.647Z,99446.59
2022-09-16T07:46:58.459Z,99451.34
2022-09-16T07:50:25.606Z,99450.63
2022-09-16T07:53:56.598Z,99450.11
2022-09-16T07:57:24.130Z,99453.66
2022-09-16T08:00:51.489Z,99457.22
2022-09-16T08:04:19.728Z,99458.52
2022-09-16T08:07:46.521Z,99457.40
2022-09-16T08:11:14.476Z,99453.38
2022-09-16T08:14:41.160Z,99451.08
2022-09-16T08:18:08.029Z,99453.44
2022-09-16T08:21:34.777Z,99445.96
2022-09-16T08:25:01.520Z,99449.45
2022-09-16T08:28:39.940Z,99444.46
2022-09-16T08:32:17.422Z,99444.81
2022-09-16T08:35:44.084Z,99451.54
2022-09-16T08:39:12.786Z,99448.63
2022-09-16T08:42:59.321Z,99444.48
2022-09-16T08:46:35.414Z,99438.06
2022-09-16T08:50:06.485Z,99442.04
2022-09-16T08:53:41.117Z,99443.86
2022-09-16T08:57:12.191Z,99441.91
2022-09-16T09:00:40.453Z,99444.31
2022-09-16T09:04:07.744Z,99435.90
2022-09-16T09:08:02.333Z,99434.84
2022-09-16T09:11:36.027Z,99436.55
2022-09-16T09:15:14.749Z,99436.39
2022-09-16T09:18:46.459Z,99428.52
2022-09-16T09:22:28.734Z,99423.71
2022-09-16T09:25:59.700Z,99423.90
2022-09-16T09:29:52.678Z,99423.14
2022-09-16T09:33:46.042Z,99420.56
2022-09-16T09:37:29.996Z,99421.95
2022-09-16T09:41:01.329Z,99411.74
2022-09-16T09:44:55.309Z,99415.96
2022-09-16T09:48:27.915Z,99426.84
2022-09-16T09:52:00.130Z,99417.77
2022-09-16T09:55:32.747Z,99413.97
2022-09-16T09:59:05.607Z,99413.34
2022-09-16T10:02:32.185Z,99407.05
2022-09-16T10:05:58.987Z,99409.56
2022-09-16T10:09:26.204Z,99416.27
2022-09-16T10:12:53.532Z,99413.48
2022-09-16T10:16:22.721Z,99412.46
2022-09-16T10:19:57.996Z,99411.62
2022-09-16T10:23:29.759Z,99403.69
2022-09-16T10:26:57.739Z,99408.87
2022-09-16T10:30:24.633Z,99409.54
2022-09-16T10:33:51.569Z,99415.77
2022-09-16T10:37:20.526Z,99414.27
2022-09-16T10:40:55.990Z,99412.36
2022-09-16T10:44:26.285Z,99414.04
2022-09-16T10:47:56.883Z,99407.35
2022-09-16T10:51:27.259Z,99406.50
2022-09-16T10:54:54.772Z,99404.63
2022-09-16T10:58:21.897Z,99405.95
2022-09-16T11:01:57.380Z,99417.18
2022-09-16T11:05:33.699Z,99415.33
2022-09-16T11:09:12.593Z,99408.55
2022-09-16T11:12:55.775Z,99408.36
2022-09-16T11:16:50.741Z,99401.35
2022-09-16T11:20:43.551Z,99407.67
2022-09-16T11:24:45.511Z,99401.39
2022-09-16T11:28:33.572Z,99397.98
2022-09-16T11:32:11.805Z,99390.36
2022-09-16T11:36:17.742Z,99392.90
2022-09-16T11:39:58.740Z,99388.88
2022-09-16T11:43:44.132Z,99392.59
2022-09-16T11:47:27.464Z,99397.19
2022-09-16T11:51:02.324Z,99394.80
2022-09-16T11:54:44.933Z,99391.70
2022-09-16T11:58:21.609Z,99387.81
2022-09-16T12:01:54.435Z,99394.90
2022-09-16T12:05:24.366Z,99398.91
2022-09-16T12:09:00.221Z,99402.45
2022-09-16T12:12:32.506Z,99395.90
2022-09-16T12:16:03.203Z,99392.59
2022-09-16T12:19:34.895Z,99403.13
2022-09-16T12:23:07.718Z,99404.95
2022-09-16T12:26:39.961Z,99395.95
2022-09-16T12:30:15.092Z,99383.54
2022-09-16T12:33:51.656Z,99376.30
2022-09-16T12:37:30.922Z,99369.79
2022-09-16T12:41:13.548Z,99360.66
2022-09-16T12:44:55.480Z,99358.59
2022-09-16T12:49:01.848Z,99353.99
2022-09-16T12:52:46.738Z,99341.56
2022-09-16T12:56:21.921Z,99340.59
2022-09-16T13:00:15.384Z,99334.66
2022-09-16T13:03:46.402Z,99327.23
2022-09-16T13:07:23.836Z,99323.58
2022-09-16T13:11:30.305Z,99320.40
2022-09-16T13:14:55.298Z,99321.02
2022-09-16T13:18:38.646Z,99320.83
2022-09-16T13:22:16.078Z,99315.24
2022-09-16T13:25:51.693Z,99315.88
2022-09-16T13:29:41.634Z,99315.21
2022-09-16T13:33:29.483Z,99315.55
2022-09-16T13:36:56.369Z,99321.23
2022-09-16T13:40:25.880Z,99322.76
2022-09-16T13:43:52.660Z,99323.14
2022-09-16T13:47:31.701Z,99327.20
2022-09-16T13:51:01.231Z,99333.55
2022-09-16T13:54:53.507Z,99341.73
2022-09-16T13:58:30.929Z,99342.88
2022-09-16T14:02:09.425Z,99332.39
2022-09-16T14:06:00.853Z,99339.71
2022-09-16T14:09:44.122Z,99336.42
2022-09-16T14:13:16.835Z,99335.71
2022-09-16T14:16:46.162Z,99340.75
2022-09-16T14:20:19.495Z,99345.17
2022-09-16T14:23:46.290Z,99359.60
2022-09-16T14:27:23.591Z,99356.13
2022-09-16T14:30:53.713Z,99351.46
2022-09-16T14:34:27.784Z,99342.78
2022-09-16T14:37:58.632Z,99338.14
2022-09-16T14:41:32.147Z,99337.91
2022-09-16T14:45:01.086Z,99332.72
2022-09-16T14:48:34.358Z,99322.92
2022-09-16T14:52:03.135Z,99322.15
2022-09-16T14:55:31.494Z,99326.42
2022-09-16T14:59:00.209Z,99322.83
2022-09-16T15:02:31.806Z,99323.45
2022-09-16T15:06:05.596Z,99321.80
2022-09-16T15:09:42.615Z,99316.64
2022-09-16T15:13:14.059Z,99311.13
2022-09-16T15:16:46.440Z,99308.68
2022-09-16T15:20:25.735Z,99309.44
2022-09-16T15:23:54.566Z,99308.66
2022-09-16T15:27:26.687Z,99308.98
2022-09-16T15:30:55.479Z,99311.21
2022-09-16T15:34:25.351Z,99309.80
2022-09-16T15:37:58.220Z,99307.83
2022-09-16T15:41:25.482Z,99305.61
2022-09-16T15:44:56.253Z,99304.86
2022-09-16T15:48:24.192Z,99298.64
2022-09-16T15:51:53.275Z,99296.67
2022-09-16T15:55:30.764Z,99297.57
2022-09-16T15:59:02.702Z,99295.70
2022-09-16T16:02:37.355Z,99294.96
2022-09-16T16:06:05.005Z,99295.45
2022-09-16T16:09:39.050Z,99294.18
2022-09-16T16:13:06.566Z,99292.73
2022-09-16T16:16:45.653Z,99291.95
2022-09-16T16:20:22.864Z,99291.59
2022-09-16T16:23:49.699Z,99289.52
2022-09-16T16:27:16.399Z,99289.97
2022-09-16T16:30:43.681Z,99290.34
2022-09-16T16:34:10.340Z,99289.14
2022-09-16T16:37:46.470Z,99290.41
2022-09-16T16:41:14.779Z,99283.82
2022-09-16T16:44:42.219Z,99285.31
2022-09-16T16:48:10.938Z,99287.16
2022-09-16T16:51:37.438Z,99288.98
2022-09-16T16:55:04.658Z,99290.44
2022-09-16T16:58:33.182Z,99293.66
2022-09-16T17:02:00.383Z,99302.67
2022-09-16T17:05:27.275Z,99300.27
2022-09-16T17:08:53.905Z,99306.11
2022-09-16T17:12:20.574Z,99307.74
2022-09-16T17:15:47.522Z,99313.22
2022-09-16T17:19:14.964Z,99314.30
2022-09-16T17:22:42.138Z,99315.89
2022-09-16T17:26:10.365Z,99313.93
2022-09-16T17:29:37.099Z,99318.48
2022-09-16T17:33:03.792Z,99319.66
2022-09-16T17:36:31.619Z,99318.77
2022-09-16T17:39:58.464Z,99318.17
2022-09-16T17:43:32.193Z,99320.71
2022-09-16T17:46:59.517Z,99322.87
2022-09-16T17:50:26.658Z,99320.67
2022-09-16T17:53:53.570Z,99321.94
2022-09-16T17:57:20.228Z,99321.42
2022-09-16T18:00:47.284Z,99325.31
2022-09-16T18:04:14.481Z,99324.27
2022-09-16T18:07:41.543Z,99324.64
2022-09-16T18:11:10.521Z,99325.35
2022-09-16T18:14:37.387Z,99326.59
2022-09-16T18:18:04.545Z,99327.15
2022-09-16T18:21:33.215Z,99325.60
2022-09-16T18:25:00.134Z,99327.73
2022-09-16T18:28:26.824Z,99328.11
2022-09-16T18:31:54.833Z,99325.03
2022-09-16T18:35:21.624Z,99322.77
2022-09-16T18:38:52.859Z,99320.19
2022-09-16T18:42:20.439Z,99322.48
2022-09-16T18:45:47.422Z,99319.70
2022-09-16T18:49:16.393Z,99323.23
2022-09-16T18:52:43.974Z,99321.66
2022-09-16T18:56:15.352Z,99321.48
2022-09-16T18:59:42.224Z,99321.80
2022-09-16T19:03:09.002Z,99327.05
2022-09-16T19:06:38.839Z,99324.42
2022-09-16T19:10:06.049Z,99320.42
2022-09-16T19:13:33.326Z,99322.38
2022-09-16T19:17:00.258Z,99320.30
2022-09-16T19:20:27.269Z,99327.84
2022-09-16T19:23:58.902Z,99329.45
2022-09-16T19:27:25.779Z,99330.19
2022-09-16T19:30:53.346Z,99330.93
2022-09-16T19:34:22.749Z,99331.14
2022-09-16T19:37:51.175Z,99327.69
2022-09-16T19:41:19.500Z,99328.94
2022-09-16T19:44:46.399Z,99333.02
2022-09-16T19:48:13.098Z,99328.50
2022-09-16T19:51:39.691Z,99323.30
2022-09-16T19:55:07.699Z,99328.20
2022-09-16T19:58:36.050Z,99326.14
2022-09-16T20:02:03.752Z,99321.60
2022-09-16T20:05:31.147Z,99324.77
2022-09-16T20:08:59.848Z,99323.58
2022-09-16T20:12:26.757Z,99322.17
2022-09-16T20:15:57.239Z,99321.33
2022-09-16T20:19:23.873Z,99323.06
2022-09-16T20:22:50.604Z,99319.09
2022-09-16T20:26:19.837Z,99324.84
2022-09-16T20:29:46.782Z,99330.44
2022-09-16T20:33:13.659Z,99328.70
2022-09-16T20:36:41.615Z,99326.98
2022-09-16T20:40:10.363Z,99331.88
2022-09-16T20:43:38.256Z,99332.73
2022-09-16T20:47:05.121Z,99335.20
2022-09-16T20:50:31.844Z,99335.85
2022-09-16T20:54:04.929Z,99333.76
2022-09-16T20:57:34.034Z,99336.73
2022-09-16T21:01:07.884Z,99335.15
2022-09-16T21:04:34.579Z,99335.14
2022-09-16T21:08:01.610Z,99333.76
2022-09-16T21:11:30.204Z,99333.04
2022-09-16T21:14:57.900Z,99331.83
2022-09-16T21:18:25.466Z,99333.56
2022-09-16T21:21:52.753Z,99333.55
2022-09-16T21:25:19.461Z,99332.69
2022-09-16T21:28:51.297Z,99335.45
2022-09-16T21:32:18.237Z,99330.56
2022-09-16T21:35:52.970Z,99330.04
2022-09-16T21:39:21.838Z,99331.43
2022-09-16T21:42:48.938Z,99331.24
2022-09-16T21:46:17.163Z,99332.29
2022-09-16T21:49:44.796Z,99330.52
2022-09-16T21:53:11.920Z,99336.27
2022-09-16T21:56:41.084Z,99335.91
2022-09-16T22:00:13.162Z,99334.17
2022-09-16T22:03:38.615Z,99335.38
2022-09-16T22:07:05.446Z,99336.60
2022-09-16T22:10:32.947Z,99332.77
2022-09-16T22:14:01.019Z,99331.88
2022-09-16T22:17:28.914Z,99329.61
2022-09-16T22:20:58.603Z,99328.37
2022-09-16T22:24:25.265Z,99328.20
2022-09-16T22:27:52.909Z,99321.91
2022-09-16T22:31:22.669Z,99330.08
2022-09-16T22:34:47.892Z,99329.54
2022-09-16T22:38:14.594Z,99324.83
2022-09-16T22:41:41.608Z,99320.63
2022-09-16T22:45:10.571Z,99323.59
2022-09-16T22:48:37.411Z,99322.52
2022-09-16T22:52:04.991Z,99318.17
2022-09-16T22:55:32.524Z,99315.89
2022-09-16T22:58:59.897Z,99310.81
2022-09-16T23:02:26.626Z,99312.71
2022-09-16T23:06:01.569Z,99314.78
2022-09-16T23:09:28.577Z,99314.59
2022-09-16T23:12:55.463Z,99307.09
2022-09-16T23:16:27.071Z,99300.45
2022-09-16T23:19:54.701Z,99299.56
2022-09-16T23:23:21.422Z,99292.92
2022-09-16T23:26:49.326Z,99294.30
2022-09-16T23:30:16.784Z,99290.80
2022-09-16T23:33:44.653Z,99292.67
2022-09-16T23:37:11.205Z,99294.77
2022-09-16T23:40:41.073Z,99291.61
2022-09-16T23:44:08.241Z,99290.55
2022-09-16T23:47:35.005Z,99290.02
2022-09-16T23:51:02.100Z,99285.14
2022-09-16T23:54:29.078Z,99283.08
2022-09-16T23:57:55.779Z,99274.04
